createdAt,value
2022-08-22T00:02:03.324Z,100433.97
2022-08-22T00:02:48.933Z,100540.84
2022-08-22T00:02:55.205Z,100509.09
2022-08-22T00:02:56.068Z,100544.38
2022-08-22T00:03:01.248Z,100539.41
2022-08-22T00:03:01.450Z,100521.22
2022-08-22T00:03:03.384Z,100541.00
2022-08-22T00:03:04.030Z,100534.97
2022-08-22T00:03:08.735Z,100434.34
2022-08-22T00:04:41.718Z,100434.38
2022-08-22T00:07:15.439Z,100436.41
2022-08-22T00:09:52.516Z,100431.25
2022-08-22T00:12:33.580Z,100431.28
2022-08-22T00:15:42.036Z,100444.78
2022-08-22T00:18:05.660Z,100447.56
2022-08-22T00:20:43.005Z,100446.78
2022-08-22T00:23:22.837Z,100453.16
2022-08-22T00:26:03.189Z,100457.94
2022-08-22T00:28:41.174Z,100469.53
2022-08-22T00:31:36.247Z,100459.97
2022-08-22T00:34:07.219Z,100455.22
2022-08-22T00:36:43.751Z,100460.41
2022-08-22T00:39:29.166Z,100453.25
2022-08-22T00:42:15.338Z,100460.41
2022-08-22T00:45:08.808Z,100456.88
2022-08-22T00:47:36.545Z,100445.75
2022-08-22T00:50:06.726Z,100456.91
2022-08-22T00:52:39.637Z,100444.13
2022-08-22T00:55:35.147Z,100444.16
2022-08-22T00:58:12.733Z,100452.88
2022-08-22T01:00:45.230Z,100448.88
2022-08-22T01:03:29.170Z,100447.25
2022-08-22T01:06:15.816Z,100440.91
2022-08-22T01:08:59.796Z,100454.06
2022-08-22T01:11:48.415Z,100446.19
2022-08-22T01:14:41.045Z,100448.19
2022-08-22T01:17:45.614Z,100441.03
2022-08-22T01:20:58.275Z,100430.72
2022-08-22T01:23:48.722Z,100434.72
2022-08-22T01:26:25.704Z,100421.97
2022-08-22T01:29:38.159Z,100425.59
2022-08-22T01:32:08.967Z,100422.81
2022-08-22T01:34:57.699Z,100432.34
2022-08-22T01:37:43.523Z,100424.84
2022-08-22T01:40:33.057Z,100428.06
2022-08-22T01:43:00.315Z,100432.41
2022-08-22T01:45:42.115Z,100426.41
2022-08-22T01:48:18.159Z,100429.19
2022-08-22T01:50:53.326Z,100427.63
2022-08-22T01:53:29.657Z,100428.84
2022-08-22T01:55:59.727Z,100423.63
2022-08-22T01:58:30.932Z,100420.47
2022-08-22T02:01:35.486Z,100423.25
2022-08-22T02:04:11.334Z,100426.06
2022-08-22T02:06:53.447Z,100421.31
2022-08-22T02:09:38.811Z,100425.28
2022-08-22T02:12:22.351Z,100416.97
2022-08-22T02:14:55.944Z,100423.34
2022-08-22T02:17:33.248Z,100425.34
2022-08-22T02:20:23.842Z,100421.78
2022-08-22T02:23:19.492Z,100423.34
2022-08-22T02:25:58.943Z,100423.00
2022-08-22T02:28:26.191Z,100421.81
2022-08-22T02:31:06.313Z,100424.19
2022-08-22T02:33:45.994Z,100421.41
2022-08-22T02:36:16.109Z,100422.22
2022-08-22T02:38:49.686Z,100432.16
2022-08-22T02:42:02.774Z,100420.63
2022-08-22T02:44:42.394Z,100417.84
2022-08-22T02:47:27.618Z,100418.25
2022-08-22T02:50:06.845Z,100416.66
2022-08-22T02:52:55.298Z,100416.66
2022-08-22T02:55:46.589Z,100414.31
2022-08-22T02:58:29.448Z,100419.88
2022-08-22T03:00:59.632Z,100418.28
2022-08-22T03:03:31.932Z,100411.91
2022-08-22T03:06:22.252Z,100399.22
2022-08-22T03:09:07.838Z,100401.22
2022-08-22T03:11:40.500Z,100401.22
2022-08-22T03:14:20.950Z,100399.59
2022-08-22T03:17:16.711Z,100403.97
2022-08-22T03:20:06.670Z,100391.25
2022-08-22T03:22:36.908Z,100392.06
2022-08-22T03:25:36.209Z,100396.41
2022-08-22T03:28:10.411Z,100390.44
2022-08-22T03:30:43.399Z,100387.66
2022-08-22T03:33:18.681Z,100389.66
2022-08-22T03:35:45.913Z,100403.97
2022-08-22T03:38:33.094Z,100404.75
2022-08-22T03:41:42.104Z,100415.47
2022-08-22T03:44:56.280Z,100401.97
2022-08-22T03:47:32.416Z,100403.56
2022-08-22T03:50:08.402Z,100409.94
2022-08-22T03:53:15.361Z,100414.75
2022-08-22T03:56:13.846Z,100402.44
2022-08-22T03:59:28.746Z,100405.59
2022-08-22T04:02:43.561Z,100408.75
2022-08-22T04:05:15.427Z,100406.41
2022-08-22T04:08:17.831Z,100401.63
2022-08-22T04:11:12.587Z,100410.41
2022-08-22T04:13:54.755Z,100410.78
2022-08-22T04:16:59.212Z,100409.19
2022-08-22T04:19:55.291Z,100408.00
2022-08-22T04:22:44.838Z,100419.09
2022-08-22T04:25:17.182Z,100417.53
2022-08-22T04:28:19.661Z,100415.13
2022-08-22T04:30:56.990Z,100425.47
2022-08-22T04:33:46.085Z,100420.69
2022-08-22T04:36:32.734Z,100418.72
2022-08-22T04:39:05.152Z,100427.03
2022-08-22T04:41:38.021Z,100421.47
2022-08-22T04:44:13.434Z,100415.06
2022-08-22T04:46:54.986Z,100414.97
2022-08-22T04:49:37.262Z,100415.75
2022-08-22T04:52:34.971Z,100423.25
2022-08-22T04:55:39.637Z,100410.22
2022-08-22T04:58:34.876Z,100421.84
2022-08-22T05:01:07.974Z,100419.31
2022-08-22T05:03:44.829Z,100424.78
2022-08-22T05:06:16.738Z,100431.91
2022-08-22T05:08:48.428Z,100437.38
2022-08-22T05:11:24.057Z,100425.41
2022-08-22T05:14:00.424Z,100426.03
2022-08-22T05:16:41.127Z,100425.56
2022-08-22T05:19:37.541Z,100424.25
2022-08-22T05:22:13.763Z,100431.84
2022-08-22T05:24:46.629Z,100429.09
2022-08-22T05:27:26.267Z,100429.34
2022-08-22T05:30:06.222Z,100426.47
2022-08-22T05:32:51.049Z,100421.75
2022-08-22T05:35:26.349Z,100425.66
2022-08-22T05:37:56.163Z,100425.84
2022-08-22T05:40:27.413Z,100429.56
2022-08-22T05:42:57.126Z,100425.09
2022-08-22T05:45:27.401Z,100431.31
2022-08-22T05:48:03.445Z,100428.78
2022-08-22T05:50:51.065Z,100432.81
2022-08-22T05:53:21.414Z,100424.06
2022-08-22T05:56:03.773Z,100433.69
2022-08-22T05:58:42.725Z,100440.03
2022-08-22T06:01:58.195Z,100433.13
2022-08-22T06:04:52.104Z,100434.13
2022-08-22T06:07:41.960Z,100434.72
2022-08-22T06:10:25.883Z,100431.56
2022-08-22T06:12:56.248Z,100431.78
2022-08-22T06:15:35.439Z,100451.66
2022-08-22T06:18:10.602Z,100445.47
2022-08-22T06:20:52.809Z,100448.78
2022-08-22T06:23:28.562Z,100439.53
2022-08-22T06:26:00.878Z,100442.25
2022-08-22T06:28:54.513Z,100450.75
2022-08-22T06:31:32.467Z,100452.56
2022-08-22T06:34:02.489Z,100455.06
2022-08-22T06:36:31.683Z,100449.94
2022-08-22T06:39:28.166Z,100455.50
2022-08-22T06:42:12.223Z,100450.63
2022-08-22T06:44:49.166Z,100439.59
2022-08-22T06:47:33.438Z,100439.41
2022-08-22T06:50:07.324Z,100447.13
2022-08-22T06:52:57.754Z,100444.72
2022-08-22T06:55:28.168Z,100454.19
2022-08-22T06:58:03.861Z,100449.88
2022-08-22T07:00:34.821Z,100446.78
2022-08-22T07:03:23.803Z,100454.81
2022-08-22T07:05:55.751Z,100456.75
2022-08-22T07:08:25.109Z,100449.38
2022-08-22T07:11:24.670Z,100452.81
2022-08-22T07:14:06.642Z,100448.47
2022-08-22T07:16:52.298Z,100456.41
2022-08-22T07:19:45.804Z,100461.75
2022-08-22T07:22:17.070Z,100461.81
2022-08-22T07:24:50.827Z,100452.84
2022-08-22T07:27:50.317Z,100446.09
2022-08-22T07:30:27.851Z,100447.50
2022-08-22T07:33:26.645Z,100456.81
2022-08-22T07:36:02.235Z,100451.78
2022-08-22T07:38:47.705Z,100457.22
2022-08-22T07:41:29.815Z,100451.88
2022-08-22T07:44:01.170Z,100451.88
2022-08-22T07:46:39.457Z,100449.38
2022-08-22T07:49:24.556Z,100451.59
2022-08-22T07:52:00.778Z,100451.50
2022-08-22T07:55:12.044Z,100452.22
2022-08-22T07:57:43.920Z,100447.16
2022-08-22T08:00:20.011Z,100447.84
2022-08-22T08:02:51.670Z,100445.28
2022-08-22T08:05:21.272Z,100440.84
2022-08-22T08:07:49.405Z,100441.84
2022-08-22T08:10:24.209Z,100446.09
2022-08-22T08:13:02.626Z,100452.28
2022-08-22T08:15:32.431Z,100448.81
2022-08-22T08:18:12.833Z,100447.22
2022-08-22T08:20:40.480Z,100449.63
2022-08-22T08:23:10.740Z,100436.41
2022-08-22T08:26:16.166Z,100432.66
2022-08-22T08:28:52.461Z,100448.09
2022-08-22T08:31:43.187Z,100436.59
2022-08-22T08:34:22.219Z,100431.88
2022-08-22T08:37:09.432Z,100432.69
2022-08-22T08:39:48.644Z,100428.94
2022-08-22T08:42:18.437Z,100428.00
2022-08-22T08:44:51.341Z,100423.28
2022-08-22T08:47:37.001Z,100424.69
2022-08-22T08:50:29.498Z,100430.69
2022-08-22T08:53:18.209Z,100434.97
2022-08-22T08:56:04.925Z,100435.31
2022-08-22T08:58:49.682Z,100432.78
2022-08-22T09:01:49.007Z,100437.28
2022-08-22T09:04:52.647Z,100438.59
2022-08-22T09:07:44.325Z,100442.38
2022-08-22T09:10:48.563Z,100444.13
2022-08-22T09:13:44.521Z,100435.47
2022-08-22T09:16:17.477Z,100444.72
2022-08-22T09:19:04.270Z,100444.19
2022-08-22T09:21:59.090Z,100448.41
2022-08-22T09:24:37.502Z,100456.56
2022-08-22T09:27:16.425Z,100448.69
2022-08-22T09:30:05.893Z,100441.09
2022-08-22T09:32:52.766Z,100443.94
2022-08-22T09:35:38.414Z,100438.00
2022-08-22T09:38:51.246Z,100438.22
2022-08-22T09:41:38.099Z,100437.19
2022-08-22T09:44:24.812Z,100426.97
2022-08-22T09:47:15.745Z,100428.06
2022-08-22T09:50:06.772Z,100413.44
2022-08-22T09:53:06.780Z,100405.75
2022-08-22T09:55:48.034Z,100405.16
2022-08-22T09:58:41.541Z,100407.25
2022-08-22T10:01:32.780Z,100399.53
2022-08-22T10:04:03.301Z,100392.19
2022-08-22T10:06:51.226Z,100386.75
2022-08-22T10:09:47.393Z,100379.66
2022-08-22T10:12:35.124Z,100384.59
2022-08-22T10:15:21.666Z,100387.03
2022-08-22T10:18:10.427Z,100386.88
2022-08-22T10:21:02.664Z,100396.50
2022-08-22T10:23:41.769Z,100388.72
2022-08-22T10:26:36.516Z,100375.03
2022-08-22T10:29:38.910Z,100369.88
2022-08-22T10:32:16.434Z,100376.78
2022-08-22T10:34:48.832Z,100378.28
2022-08-22T10:37:32.842Z,100375.13
2022-08-22T10:40:13.424Z,100377.34
2022-08-22T10:43:09.373Z,100379.19
2022-08-22T10:45:47.037Z,100382.19
2022-08-22T10:48:43.606Z,100397.47
2022-08-22T10:51:23.910Z,100400.72
2022-08-22T10:54:19.899Z,100399.88
2022-08-22T10:57:11.549Z,100410.91
2022-08-22T10:59:46.279Z,100409.91
2022-08-22T11:02:36.859Z,100400.88
2022-08-22T11:05:29.642Z,100389.50
2022-08-22T11:08:34.613Z,100399.56
2022-08-22T11:11:17.662Z,100402.41
2022-08-22T11:13:56.742Z,100404.81
2022-08-22T11:17:27.599Z,100400.00
2022-08-22T11:20:22.216Z,100411.72
2022-08-22T11:23:12.675Z,100413.72
2022-08-22T11:26:07.782Z,100417.66
2022-08-22T11:28:43.785Z,100416.63
2022-08-22T11:31:26.070Z,100419.75
2022-08-22T11:34:30.342Z,100430.31
2022-08-22T11:37:11.619Z,100429.44
2022-08-22T11:39:45.570Z,100431.75
2022-08-22T11:42:31.369Z,100430.97
2022-08-22T11:45:05.270Z,100435.78
2022-08-22T11:47:45.331Z,100443.19
2022-08-22T11:50:29.745Z,100444.72
2022-08-22T11:53:33.038Z,100448.00
2022-08-22T11:56:10.414Z,100441.03
2022-08-22T11:59:06.225Z,100433.06
2022-08-22T12:01:49.056Z,100437.25
2022-08-22T12:04:28.721Z,100434.13
2022-08-22T12:07:22.034Z,100434.25
2022-08-22T12:10:03.737Z,100431.50
2022-08-22T12:13:01.507Z,100426.53
2022-08-22T12:15:40.455Z,100420.28
2022-08-22T12:18:36.121Z,100421.25
2022-08-22T12:21:23.137Z,100423.97
2022-08-22T12:24:06.164Z,100421.88
2022-08-22T12:26:45.462Z,100436.41
2022-08-22T12:29:39.700Z,100446.28
2022-08-22T12:32:28.635Z,100460.84
2022-08-22T12:35:20.654Z,100441.09
2022-08-22T12:38:29.091Z,100437.38
2022-08-22T12:41:28.132Z,100430.06
2022-08-22T12:44:02.341Z,100439.59
2022-08-22T12:46:56.338Z,100452.84
2022-08-22T12:50:06.722Z,100466.22
2022-08-22T12:52:56.327Z,100492.94
2022-08-22T12:55:40.436Z,100514.75
2022-08-22T12:58:08.005Z,100521.56
2022-08-22T13:00:44.114Z,100537.28
2022-08-22T13:03:25.772Z,100541.38
2022-08-22T13:05:57.256Z,100535.44
2022-08-22T13:08:36.049Z,100523.69
2022-08-22T13:11:22.319Z,100539.25
2022-08-22T13:14:00.292Z,100547.66
2022-08-22T13:16:39.033Z,100544.78
2022-08-22T13:19:13.645Z,100540.00
2022-08-22T13:21:48.878Z,100553.91
2022-08-22T13:24:38.598Z,100550.75
2022-08-22T13:27:14.961Z,100544.91
2022-08-22T13:29:53.148Z,100530.03
2022-08-22T13:32:33.841Z,100518.00
2022-08-22T13:35:03.071Z,100521.56
2022-08-22T13:37:44.475Z,100525.97
2022-08-22T13:40:21.525Z,100533.91
2022-08-22T13:43:02.836Z,100540.25
2022-08-22T13:45:32.882Z,100536.84
2022-08-22T13:48:04.046Z,100533.34
2022-08-22T13:50:58.746Z,100527.94
2022-08-22T13:54:00.382Z,100518.50
2022-08-22T13:56:47.188Z,100529.31
2022-08-22T13:59:49.069Z,100535.00
2022-08-22T14:02:51.373Z,100531.84
2022-08-22T14:05:48.953Z,100528.69
2022-08-22T14:08:20.776Z,100536.25
2022-08-22T14:10:55.336Z,100532.34
2022-08-22T14:13:37.104Z,100524.47
2022-08-22T14:16:19.593Z,100497.94
2022-08-22T14:18:55.080Z,100496.41
2022-08-22T14:21:51.999Z,100509.50
2022-08-22T14:24:30.925Z,100544.03
2022-08-22T14:27:41.481Z,100558.31
2022-08-22T14:30:19.006Z,100546.84
2022-08-22T14:32:59.399Z,100534.56
2022-08-22T14:35:57.737Z,100526.22
2022-08-22T14:38:39.128Z,100511.97
2022-08-22T14:41:52.710Z,100507.63
2022-08-22T14:44:28.008Z,100501.31
2022-08-22T14:47:12.514Z,100489.00
2022-08-22T14:49:59.202Z,100479.50
2022-08-22T14:52:43.158Z,100481.09
2022-08-22T14:55:15.136Z,100482.28
2022-08-22T14:58:03.221Z,100473.97
2022-08-22T15:00:40.252Z,100484.66
2022-08-22T15:03:17.523Z,100482.28
2022-08-22T15:05:53.639Z,100475.91
2022-08-22T15:08:34.789Z,100471.16
2022-08-22T15:11:14.525Z,100477.09
2022-08-22T15:14:12.790Z,100472.34
2022-08-22T15:16:46.565Z,100470.78
2022-08-22T15:19:36.514Z,100450.13
2022-08-22T15:22:28.304Z,100443.78
2022-08-22T15:25:18.658Z,100439.44
2022-08-22T15:27:52.956Z,100443.00
2022-08-22T15:30:34.578Z,100446.97
2022-08-22T15:33:37.992Z,100434.69
2022-08-22T15:36:15.939Z,100447.41
2022-08-22T15:38:56.265Z,100445.81
2022-08-22T15:41:36.986Z,100452.56
2022-08-22T15:44:32.418Z,100449.41
2022-08-22T15:47:25.496Z,100452.56
2022-08-22T15:50:00.460Z,100451.75
2022-08-22T15:52:32.210Z,100448.19
2022-08-22T15:55:17.044Z,100445.03
2022-08-22T15:57:57.663Z,100435.09
2022-08-22T16:00:33.480Z,100446.59
2022-08-22T16:03:34.477Z,100451.38
2022-08-22T16:06:08.165Z,100445.03
2022-08-22T16:08:52.194Z,100443.44
2022-08-22T16:11:33.417Z,100445.41
2022-08-22T16:14:21.772Z,100447.78
2022-08-22T16:16:56.849Z,100441.06
2022-08-22T16:19:27.511Z,100442.22
2022-08-22T16:21:59.659Z,100435.91
2022-08-22T16:24:27.040Z,100431.16
2022-08-22T16:26:54.722Z,100434.28
2022-08-22T16:29:41.551Z,100439.81
2022-08-22T16:32:12.515Z,100438.63
2022-08-22T16:34:46.020Z,100435.41
2022-08-22T16:37:18.182Z,100432.19
2022-08-22T16:39:52.607Z,100433.31
2022-08-22T16:42:22.100Z,100438.44
2022-08-22T16:45:05.484Z,100435.66
2022-08-22T16:47:41.950Z,100442.03
2022-08-22T16:50:27.204Z,100439.66
2022-08-22T16:53:00.326Z,100433.72
2022-08-22T16:55:30.335Z,100438.94
2022-08-22T16:58:10.595Z,100432.19
2022-08-22T17:01:10.843Z,100432.59
2022-08-22T17:03:45.674Z,100417.53
2022-08-22T17:06:21.019Z,100417.53
2022-08-22T17:08:51.427Z,100409.63
2022-08-22T17:11:41.348Z,100408.03
2022-08-22T17:14:45.786Z,100409.63
2022-08-22T17:17:25.464Z,100408.06
2022-08-22T17:20:08.472Z,100409.25
2022-08-22T17:22:54.638Z,100411.63
2022-08-22T17:25:35.170Z,100417.16
2022-08-22T17:28:40.523Z,100425.47
2022-08-22T17:31:30.365Z,100429.03
2022-08-22T17:34:29.528Z,100425.38
2022-08-22T17:37:21.820Z,100428.16
2022-08-22T17:40:06.954Z,100431.72
2022-08-22T17:42:54.015Z,100443.59
2022-08-22T17:45:39.992Z,100445.56
2022-08-22T17:48:26.052Z,100456.28
2022-08-22T17:50:58.196Z,100465.00
2022-08-22T17:53:43.538Z,100460.22
2022-08-22T17:56:19.258Z,100458.63
2022-08-22T17:58:58.951Z,100468.16
2022-08-22T18:01:47.760Z,100464.59
2022-08-22T18:04:25.686Z,100460.19
2022-08-22T18:07:22.139Z,100457.41
2022-08-22T18:10:01.127Z,100441.97
2022-08-22T18:12:40.624Z,100452.25
2022-08-22T18:15:25.728Z,100444.31
2022-08-22T18:18:03.318Z,100442.72
2022-08-22T18:20:50.206Z,100436.75
2022-08-22T18:23:36.206Z,100440.75
2022-08-22T18:26:13.278Z,100439.56
2022-08-22T18:28:49.151Z,100447.50
2022-08-22T18:31:24.975Z,100443.88
2022-08-22T18:34:06.632Z,100456.59
2022-08-22T18:36:47.808Z,100459.34
2022-08-22T18:39:29.078Z,100460.94
2022-08-22T18:42:22.834Z,100458.94
2022-08-22T18:44:49.898Z,100455.41
2022-08-22T18:47:25.854Z,100464.13
2022-08-22T18:49:55.992Z,100464.53
2022-08-22T18:52:26.285Z,100476.03
2022-08-22T18:55:15.764Z,100472.84
2022-08-22T18:58:02.420Z,100472.47
2022-08-22T19:00:41.692Z,100470.50
2022-08-22T19:03:36.290Z,100476.47
2022-08-22T19:06:21.908Z,100468.94
2022-08-22T19:09:18.810Z,100474.06
2022-08-22T19:11:59.015Z,100482.41
2022-08-22T19:14:41.192Z,100486.41
2022-08-22T19:17:15.063Z,100490.38
2022-08-22T19:20:20.010Z,100492.72
2022-08-22T19:22:51.109Z,100502.59
2022-08-22T19:25:27.772Z,100494.25
2022-08-22T19:28:07.275Z,100505.75
2022-08-22T19:30:34.644Z,100504.53
2022-08-22T19:33:11.725Z,100513.63
2022-08-22T19:35:42.114Z,100516.81
2022-08-22T19:38:11.031Z,100527.06
2022-08-22T19:40:58.286Z,100527.50
2022-08-22T19:43:38.695Z,100529.06
2022-08-22T19:46:11.232Z,100530.69
2022-08-22T19:48:47.378Z,100534.25
2022-08-22T19:51:29.159Z,100536.63
2022-08-22T19:54:02.654Z,100523.97
2022-08-22T19:56:51.714Z,100527.97
2022-08-22T19:59:46.780Z,100530.78
2022-08-22T20:02:33.643Z,100530.78
2022-08-22T20:05:00.880Z,100535.56
2022-08-22T20:10:49.514Z,100534.38
2022-08-22T20:13:26.293Z,100535.97
2022-08-22T20:16:44.647Z,100537.53
2022-08-22T20:19:12.188Z,100542.63
2022-08-22T20:21:53.482Z,100539.03
2022-08-22T20:25:05.077Z,100540.59
2022-08-22T20:27:38.320Z,100545.72
2022-08-22T20:30:24.917Z,100533.84
2022-08-22T20:33:07.947Z,100540.56
2022-08-22T20:35:41.439Z,100543.31
2022-08-22T20:38:16.786Z,100543.66
2022-08-22T20:40:57.215Z,100544.06
2022-08-22T20:43:35.875Z,100543.28
2022-08-22T20:46:25.199Z,100540.06
2022-08-22T20:48:55.038Z,100540.06
2022-08-22T20:51:25.635Z,100534.94
2022-08-22T20:53:59.205Z,100531.75
2022-08-22T20:56:52.699Z,100540.06
2022-08-22T20:59:41.991Z,100543.63
2022-08-22T21:02:15.520Z,100545.19
2022-08-22T21:05:08.883Z,100546.00
2022-08-22T21:07:37.889Z,100549.94
2022-08-22T21:10:26.105Z,100549.50
2022-08-22T21:13:01.363Z,100542.00
2022-08-22T21:15:56.467Z,100542.81
2022-08-22T21:18:34.224Z,100549.59
2022-08-22T21:21:07.026Z,100538.91
2022-08-22T21:23:37.994Z,100545.66
2022-08-22T21:26:10.618Z,100544.44
2022-08-22T21:28:55.772Z,100548.81
2022-08-22T21:31:27.379Z,100535.31
2022-08-22T21:33:56.912Z,100535.31
2022-08-22T21:36:27.799Z,100534.53
2022-08-22T21:39:20.577Z,100538.50
2022-08-22T21:41:55.181Z,100535.28
2022-08-22T21:44:38.575Z,100524.16
2022-08-22T21:47:30.760Z,100526.94
2022-08-22T21:50:16.241Z,100525.38
2022-08-22T21:53:14.096Z,100528.63
2022-08-22T21:55:43.371Z,100537.75
2022-08-22T21:58:36.793Z,100536.13
2022-08-22T22:01:28.900Z,100524.28
2022-08-22T22:03:57.510Z,100524.28
2022-08-22T22:06:25.588Z,100520.34
2022-08-22T22:08:52.915Z,100514.00
2022-08-22T22:11:20.238Z,100509.22
2022-08-22T22:13:47.654Z,100514.34
2022-08-22T22:16:22.378Z,100510.78
2022-08-22T22:18:49.680Z,100509.22
2022-08-22T22:21:17.115Z,100518.72
2022-08-22T22:23:44.370Z,100524.34
2022-08-22T22:26:12.296Z,100524.38
2022-08-22T22:28:47.490Z,100529.13
2022-08-22T22:31:18.466Z,100530.72
2022-08-22T22:33:46.361Z,100528.31
2022-08-22T22:36:21.024Z,100537.81
2022-08-22T22:38:51.499Z,100539.38
2022-08-22T22:41:21.410Z,100544.16
2022-08-22T22:43:48.657Z,100549.69
2022-08-22T22:46:15.863Z,100556.03
2022-08-22T22:48:43.034Z,100551.66
2022-08-22T22:51:12.618Z,100547.31
2022-08-22T22:53:42.900Z,100548.47
2022-08-22T22:56:15.780Z,100551.22
2022-08-22T22:58:43.917Z,100550.84
2022-08-22T23:01:21.007Z,100550.06
2022-08-22T23:03:52.540Z,100542.88
2022-08-22T23:06:22.461Z,100538.97
2022-08-22T23:08:50.314Z,100540.91
2022-08-22T23:11:25.525Z,100550.41
2022-08-22T23:13:53.053Z,100541.66
2022-08-22T23:16:23.786Z,100548.81
2022-08-22T23:18:51.107Z,100556.72
2022-08-22T23:21:19.845Z,100561.91
2022-08-22T23:23:48.971Z,100568.63
2022-08-22T23:26:16.683Z,100563.91
2022-08-22T23:28:44.526Z,100564.72
2022-08-22T23:31:24.308Z,100555.19
2022-08-22T23:33:51.458Z,100546.84
2022-08-22T23:36:21.150Z,100542.88
2022-08-22T23:38:49.889Z,100542.50
2022-08-22T23:41:18.678Z,100537.75
2022-08-22T23:43:49.813Z,100545.69
2022-08-22T23:46:18.965Z,100548.88
2022-08-22T23:48:46.806Z,100547.69
2022-08-22T23:51:16.649Z,100544.13
2022-08-22T23:53:44.802Z,100536.56
2022-08-22T23:56:22.517Z,100535.38
2022-08-22T23:58:50.658Z,100533.03
